createdAt,value
2023-05-25T00:01:09.662Z,4.00
2023-05-25T00:03:40.444Z,4.00
2023-05-25T00:06:07.940Z,4.20
2023-05-25T00:08:35.140Z,3.25
2023-05-25T00:11:02.366Z,3.95
2023-05-25T00:13:29.568Z,3.78
2023-05-25T00:15:56.728Z,3.75
2023-05-25T00:18:25.038Z,3.60
2023-05-25T00:20:58.370Z,4.20
2023-05-25T00:23:25.713Z,4.28
2023-05-25T00:25:52.975Z,4.10
2023-05-25T00:28:20.231Z,3.97
2023-05-25T00:30:47.999Z,4.10
2023-05-25T00:33:15.767Z,3.92
2023-05-25T00:35:43.483Z,3.80
2023-05-25T00:38:14.962Z,4.00
2023-05-25T00:40:42.969Z,3.80
2023-05-25T00:43:10.909Z,4.07
2023-05-25T00:45:38.194Z,3.83
2023-05-25T00:48:06.116Z,3.55
2023-05-25T00:50:40.758Z,3.90
2023-05-25T00:53:08.775Z,3.40
2023-05-25T00:55:38.362Z,4.40
2023-05-25T00:58:06.750Z,4.00
2023-05-25T01:00:37.340Z,3.67
2023-05-25T01:03:10.387Z,3.92
2023-05-25T01:05:39.214Z,4.13
2023-05-25T01:08:08.030Z,4.25
2023-05-25T01:10:36.617Z,3.65
2023-05-25T01:13:04.795Z,3.88
2023-05-25T01:15:33.480Z,3.88
2023-05-25T01:18:01.913Z,4.65
2023-05-25T01:20:32.385Z,3.80
2023-05-25T01:23:20.650Z,3.72
2023-05-25T01:25:51.908Z,3.88
2023-05-25T01:28:22.475Z,4.35
2023-05-25T01:30:50.874Z,4.07
2023-05-25T01:33:19.256Z,3.80
2023-05-25T01:35:47.273Z,4.82
2023-05-25T01:38:14.773Z,4.75
2023-05-25T01:40:41.955Z,4.40
2023-05-25T01:43:09.165Z,4.10
2023-05-25T01:45:36.901Z,5.35
2023-05-25T01:48:04.119Z,4.53
2023-05-25T01:50:42.394Z,4.30
2023-05-25T01:53:29.199Z,4.82
2023-05-25T01:55:58.608Z,4.88
2023-05-25T01:58:27.340Z,5.60
2023-05-25T02:00:55.372Z,5.60
2023-05-25T02:03:22.718Z,5.03
2023-05-25T02:05:49.978Z,6.20
2023-05-25T02:08:17.543Z,7.95
2023-05-25T02:10:44.727Z,7.28
2023-05-25T02:13:12.027Z,6.78
2023-05-25T02:15:39.278Z,7.53
2023-05-25T02:18:06.533Z,6.97
2023-05-25T02:20:33.754Z,7.95
2023-05-25T02:23:01.248Z,8.07
2023-05-25T02:25:28.496Z,8.18
2023-05-25T02:27:55.835Z,8.02
2023-05-25T02:30:23.073Z,9.50
2023-05-25T02:32:50.875Z,10.10
2023-05-25T02:35:18.166Z,10.38
2023-05-25T02:37:45.353Z,11.35
2023-05-25T02:40:13.518Z,11.05
2023-05-25T02:42:40.890Z,12.38
2023-05-25T02:45:12.958Z,11.40
2023-05-25T02:47:40.375Z,12.50
2023-05-25T02:50:07.840Z,11.65
2023-05-25T02:52:35.390Z,11.35
2023-05-25T02:55:03.514Z,12.02
2023-05-25T02:57:31.011Z,11.85
2023-05-25T02:59:58.201Z,12.77
2023-05-25T03:02:25.639Z,11.77
2023-05-25T03:04:55.883Z,10.90
2023-05-25T03:07:25.786Z,11.65
2023-05-25T03:09:53.396Z,11.90
2023-05-25T03:12:20.635Z,11.27
2023-05-25T03:14:47.891Z,11.27
2023-05-25T03:17:15.713Z,11.95
2023-05-25T03:19:44.028Z,10.68
2023-05-25T03:22:11.213Z,10.35
2023-05-25T03:24:41.716Z,11.07
2023-05-25T03:27:09.248Z,10.10
2023-05-25T03:29:36.449Z,10.23
2023-05-25T03:32:03.746Z,10.48
2023-05-25T03:34:31.056Z,10.23
2023-05-25T03:36:58.226Z,9.85
2023-05-25T03:39:25.630Z,9.82
2023-05-25T03:41:52.884Z,9.98
2023-05-25T03:44:20.105Z,9.60
2023-05-25T03:46:47.310Z,9.45
2023-05-25T03:49:14.726Z,10.27
2023-05-25T03:51:42.320Z,9.95
2023-05-25T03:54:09.560Z,9.40
2023-05-25T03:56:36.852Z,9.63
2023-05-25T03:59:04.126Z,9.20
2023-05-25T04:01:31.327Z,9.38
2023-05-25T04:03:58.609Z,9.45
2023-05-25T04:06:26.003Z,8.68
2023-05-25T04:08:53.419Z,9.48
2023-05-25T04:11:22.720Z,8.80
2023-05-25T04:13:49.970Z,9.23
2023-05-25T04:16:17.481Z,9.68
2023-05-25T04:18:44.698Z,8.55
2023-05-25T04:21:11.889Z,9.40
2023-05-25T04:23:39.052Z,9.00
2023-05-25T04:26:10.258Z,9.40
2023-05-25T04:28:37.561Z,9.30
2023-05-25T04:31:05.703Z,10.40
2023-05-25T04:33:34.231Z,9.07
2023-05-25T04:36:01.652Z,9.50
2023-05-25T04:38:30.723Z,9.32
2023-05-25T04:40:58.179Z,10.02
2023-05-25T04:43:26.165Z,10.45
2023-05-25T04:45:54.458Z,10.15
2023-05-25T04:48:22.216Z,9.30
2023-05-25T04:50:49.618Z,9.77
2023-05-25T04:53:17.019Z,8.77
2023-05-25T04:55:44.509Z,9.18
2023-05-25T04:58:14.557Z,9.32
2023-05-25T05:00:42.739Z,10.20
2023-05-25T05:03:11.215Z,9.52
2023-05-25T05:05:38.615Z,10.45
2023-05-25T05:08:06.173Z,9.43
2023-05-25T05:10:33.377Z,9.77
2023-05-25T05:13:00.899Z,9.75
2023-05-25T05:15:28.173Z,9.27
2023-05-25T05:17:55.814Z,9.95
2023-05-25T05:20:23.241Z,9.93
2023-05-25T05:22:50.973Z,11.63
2023-05-25T05:25:18.250Z,9.80
2023-05-25T05:27:45.471Z,9.88
2023-05-25T05:30:12.841Z,9.88
2023-05-25T05:32:40.099Z,9.30
2023-05-25T05:35:07.609Z,10.30
2023-05-25T05:37:35.007Z,9.73
2023-05-25T05:40:02.179Z,10.02
2023-05-25T05:42:29.470Z,10.05
2023-05-25T05:44:56.786Z,10.43
2023-05-25T05:47:24.088Z,10.23
2023-05-25T05:49:51.324Z,10.43
2023-05-25T05:52:18.548Z,10.57
2023-05-25T05:54:45.800Z,10.75
2023-05-25T05:57:13.723Z,9.88
2023-05-25T05:59:41.237Z,9.77
2023-05-25T06:02:08.497Z,9.88
2023-05-25T06:04:35.810Z,10.73
2023-05-25T06:07:03.002Z,9.80
2023-05-25T06:09:30.369Z,10.70
2023-05-25T06:11:57.673Z,9.35
2023-05-25T06:14:26.757Z,10.95
2023-05-25T06:16:55.781Z,10.63
2023-05-25T06:19:23.052Z,10.48
2023-05-25T06:21:50.306Z,10.30
2023-05-25T06:24:17.458Z,10.43
2023-05-25T06:26:44.693Z,9.82
2023-05-25T06:29:12.183Z,10.30
2023-05-25T06:31:39.408Z,10.95
2023-05-25T06:34:06.625Z,10.43
2023-05-25T06:36:33.893Z,10.00
2023-05-25T06:39:02.346Z,11.40
2023-05-25T06:41:30.880Z,9.57
2023-05-25T06:43:58.110Z,9.50
2023-05-25T06:46:25.627Z,10.40
2023-05-25T06:48:52.919Z,10.20
2023-05-25T06:51:20.164Z,10.88
2023-05-25T06:53:53.571Z,10.88
2023-05-25T06:56:28.580Z,10.23
2023-05-25T06:59:02.519Z,10.93
2023-05-25T07:01:30.594Z,10.60
2023-05-25T07:03:57.986Z,10.07
2023-05-25T07:06:25.160Z,9.75
2023-05-25T07:08:52.444Z,10.18
2023-05-25T07:11:21.943Z,10.88
2023-05-25T07:13:49.430Z,9.60
2023-05-25T07:16:16.712Z,9.48
2023-05-25T07:18:44.029Z,10.65
2023-05-25T07:21:11.849Z,10.18
2023-05-25T07:23:41.162Z,9.70
2023-05-25T07:26:08.580Z,10.15
2023-05-25T07:28:35.968Z,10.75
2023-05-25T07:31:03.161Z,10.65
2023-05-25T07:33:31.211Z,10.02
2023-05-25T07:35:58.405Z,9.07
2023-05-25T07:38:25.594Z,10.57
2023-05-25T07:40:52.875Z,9.23
2023-05-25T07:43:20.158Z,10.00
2023-05-25T07:45:47.361Z,9.52
2023-05-25T07:48:14.636Z,8.38
2023-05-25T07:50:41.817Z,9.27
2023-05-25T07:53:09.161Z,9.10
2023-05-25T07:55:36.487Z,9.80
2023-05-25T07:58:04.062Z,10.18
2023-05-25T08:00:31.372Z,9.63
2023-05-25T08:02:58.641Z,9.45
2023-05-25T08:05:26.228Z,9.13
2023-05-25T08:07:53.522Z,9.73
2023-05-25T08:10:20.935Z,9.38
2023-05-25T08:12:50.211Z,9.00
2023-05-25T08:15:18.068Z,9.23
2023-05-25T08:17:45.735Z,9.60
2023-05-25T08:20:14.927Z,9.57
2023-05-25T08:22:42.856Z,9.32
2023-05-25T08:25:11.267Z,9.88
2023-05-25T08:27:38.453Z,9.27
2023-05-25T08:30:06.381Z,8.60
2023-05-25T08:32:33.620Z,8.10
2023-05-25T08:35:02.124Z,8.60
2023-05-25T08:37:30.482Z,8.48
2023-05-25T08:39:57.834Z,9.40
2023-05-25T08:42:25.197Z,9.05
2023-05-25T08:44:52.615Z,9.18
2023-05-25T08:47:22.740Z,8.70
2023-05-25T08:49:51.418Z,8.13
2023-05-25T08:52:22.202Z,8.50
2023-05-25T08:54:51.646Z,7.80
2023-05-25T08:57:28.218Z,8.38
2023-05-25T09:00:07.290Z,8.35
2023-05-25T09:02:38.499Z,7.95
2023-05-25T09:05:06.589Z,7.95
2023-05-25T09:07:34.386Z,9.10
2023-05-25T09:10:01.709Z,8.07
2023-05-25T09:12:32.467Z,7.10
2023-05-25T09:15:00.828Z,8.05
2023-05-25T09:17:28.423Z,8.35
2023-05-25T09:19:56.218Z,8.20
2023-05-25T09:22:23.510Z,8.20
2023-05-25T09:24:50.721Z,7.13
2023-05-25T09:27:19.595Z,8.35
2023-05-25T09:29:50.477Z,8.40
2023-05-25T09:32:18.602Z,8.63
2023-05-25T09:34:46.710Z,8.48
2023-05-25T09:37:14.846Z,8.05
2023-05-25T09:39:45.741Z,7.68
2023-05-25T09:42:18.214Z,8.80
2023-05-25T09:44:45.511Z,8.63
2023-05-25T09:47:29.230Z,9.10
2023-05-25T09:50:00.374Z,7.95
2023-05-25T09:52:28.409Z,8.98
2023-05-25T09:54:56.781Z,8.82
2023-05-25T09:57:34.399Z,8.73
2023-05-25T10:00:05.215Z,8.77
2023-05-25T10:02:32.491Z,8.88
2023-05-25T10:04:59.971Z,8.52
2023-05-25T10:07:27.654Z,9.00
2023-05-25T10:09:55.394Z,8.60
2023-05-25T10:12:24.698Z,8.00
2023-05-25T10:14:52.218Z,8.00
2023-05-25T10:17:22.178Z,8.40
2023-05-25T10:19:57.973Z,8.13
2023-05-25T10:22:40.963Z,7.88
2023-05-25T10:25:15.930Z,8.23
2023-05-25T10:27:45.224Z,8.23
2023-05-25T10:30:13.395Z,8.27
2023-05-25T10:32:41.751Z,7.97
2023-05-25T10:35:10.788Z,8.52
2023-05-25T10:37:38.963Z,8.25
2023-05-25T10:40:08.897Z,8.27
2023-05-25T10:42:37.172Z,9.20
2023-05-25T10:45:05.989Z,7.70
2023-05-25T10:47:33.812Z,7.72
2023-05-25T10:50:03.111Z,6.88
2023-05-25T10:52:31.633Z,7.57
2023-05-25T10:55:02.165Z,7.00
2023-05-25T10:57:32.420Z,6.80
2023-05-25T11:00:09.469Z,6.88
2023-05-25T11:02:52.400Z,6.45
2023-05-25T11:05:38.927Z,8.07
2023-05-25T11:08:12.863Z,8.82
2023-05-25T11:10:49.333Z,8.43
2023-05-25T11:13:39.780Z,8.00
2023-05-25T11:16:17.797Z,8.95
2023-05-25T11:19:03.391Z,9.35
2023-05-25T11:21:32.268Z,7.65
2023-05-25T11:24:00.509Z,8.15
2023-05-25T11:26:31.582Z,7.78
2023-05-25T11:29:01.824Z,7.57
2023-05-25T11:31:42.226Z,7.53
2023-05-25T11:34:12.023Z,8.00
2023-05-25T11:39:24.555Z,8.18
2023-05-25T11:42:25.313Z,8.50
2023-05-25T11:45:00.018Z,8.43
2023-05-25T11:47:32.544Z,8.15
2023-05-25T11:50:00.999Z,7.53
2023-05-25T11:52:30.080Z,6.63
2023-05-25T11:54:59.800Z,7.55
2023-05-25T11:57:27.040Z,7.25
2023-05-25T11:59:56.647Z,7.97
2023-05-25T12:02:24.497Z,7.93
2023-05-25T12:04:58.748Z,6.30
2023-05-25T12:07:26.776Z,6.15
2023-05-25T12:10:05.789Z,6.28
2023-05-25T12:12:38.710Z,6.18
2023-05-25T12:15:06.204Z,6.25
2023-05-25T12:17:34.334Z,6.80
2023-05-25T12:20:01.695Z,6.78
2023-05-25T12:22:29.015Z,6.18
2023-05-25T12:24:56.508Z,6.20
2023-05-25T12:27:23.993Z,6.35
2023-05-25T12:29:53.049Z,6.00
2023-05-25T12:32:20.544Z,7.38
2023-05-25T12:34:47.792Z,6.07
2023-05-25T12:37:25.506Z,5.82
2023-05-25T12:39:55.624Z,6.60
2023-05-25T12:42:37.463Z,6.57
2023-05-25T12:45:14.176Z,6.68
2023-05-25T12:47:47.432Z,7.55
2023-05-25T12:50:18.640Z,5.97
2023-05-25T12:52:46.923Z,7.30
2023-05-25T12:55:33.217Z,7.32
2023-05-25T12:58:05.629Z,7.28
2023-05-25T13:00:33.012Z,8.80
2023-05-25T13:03:01.163Z,8.18
2023-05-25T13:05:29.854Z,9.05
2023-05-25T13:07:57.814Z,8.35
2023-05-25T13:10:25.652Z,8.05
2023-05-25T13:12:55.576Z,7.47
2023-05-25T13:15:23.167Z,7.97
2023-05-25T13:17:51.037Z,8.25
2023-05-25T13:20:19.203Z,7.57
2023-05-25T13:22:47.013Z,6.70
2023-05-25T13:25:15.040Z,7.60
2023-05-25T13:27:45.898Z,7.38
2023-05-25T13:30:13.605Z,6.50
2023-05-25T13:32:43.139Z,7.22
2023-05-25T13:35:18.275Z,7.38
2023-05-25T13:37:45.980Z,8.52
2023-05-25T13:40:13.654Z,7.22
2023-05-25T13:42:41.030Z,6.97
2023-05-25T13:45:08.567Z,7.43
2023-05-25T13:47:35.949Z,8.00
2023-05-25T13:50:03.173Z,7.70
2023-05-25T13:52:30.301Z,8.55
2023-05-25T13:54:57.487Z,9.50
2023-05-25T13:57:24.888Z,8.75
2023-05-25T13:59:52.178Z,8.40
2023-05-25T14:02:19.487Z,8.50
2023-05-25T14:04:46.841Z,7.32
2023-05-25T14:07:14.191Z,8.98
2023-05-25T14:09:41.617Z,9.30
2023-05-25T14:12:08.904Z,8.10
2023-05-25T14:14:36.194Z,8.00
2023-05-25T14:17:03.547Z,8.70
2023-05-25T14:19:31.251Z,8.90
2023-05-25T14:24:28.578Z,9.27
2023-05-25T14:26:55.724Z,8.95
2023-05-25T14:29:23.303Z,9.30
2023-05-25T14:31:51.015Z,8.75
2023-05-25T14:34:18.931Z,8.95
2023-05-25T14:36:46.082Z,8.27
2023-05-25T14:39:15.748Z,8.95
2023-05-25T14:41:44.354Z,9.15
2023-05-25T14:44:11.611Z,8.40
2023-05-25T14:46:38.857Z,7.75
2023-05-25T14:49:06.051Z,7.82
2023-05-25T14:51:33.184Z,7.68
2023-05-25T14:54:03.519Z,7.50
2023-05-25T14:56:30.657Z,6.40
2023-05-25T14:58:58.009Z,7.32
2023-05-25T15:01:25.508Z,7.40
2023-05-25T15:03:53.054Z,7.72
2023-05-25T15:06:20.429Z,6.82
2023-05-25T15:08:47.770Z,8.15
2023-05-25T15:11:15.015Z,8.52
2023-05-25T15:13:42.364Z,6.90
2023-05-25T15:16:12.318Z,7.45
2023-05-25T15:18:39.595Z,6.13
2023-05-25T15:21:06.829Z,7.60
2023-05-25T15:23:34.001Z,8.25
2023-05-25T15:26:04.862Z,7.25
2023-05-25T15:28:32.429Z,7.18
2023-05-25T15:31:02.573Z,7.40
2023-05-25T15:33:44.174Z,6.68
2023-05-25T15:36:15.895Z,6.25
2023-05-25T15:38:44.487Z,7.03
2023-05-25T15:41:15.422Z,6.88
2023-05-25T15:43:42.665Z,7.13
2023-05-25T15:46:09.845Z,6.80
2023-05-25T15:48:37.056Z,6.70
2023-05-25T15:51:04.358Z,6.80
2023-05-25T15:53:31.650Z,6.45
2023-05-25T15:55:58.825Z,6.60
2023-05-25T15:58:26.059Z,6.65
2023-05-25T16:00:53.217Z,6.45
2023-05-25T16:03:20.567Z,5.95
2023-05-25T16:05:47.776Z,7.05
2023-05-25T16:08:15.024Z,6.07
2023-05-25T16:10:42.178Z,5.68
2023-05-25T16:13:09.337Z,5.72
2023-05-25T16:15:36.556Z,6.22
2023-05-25T16:18:03.828Z,6.47
2023-05-25T16:20:31.076Z,5.50
2023-05-25T16:22:58.322Z,5.72
2023-05-25T16:25:26.062Z,6.63
2023-05-25T16:27:53.390Z,5.22
2023-05-25T16:30:20.801Z,6.65
2023-05-25T16:32:48.217Z,6.13
2023-05-25T16:35:15.547Z,5.40
2023-05-25T16:37:42.950Z,7.05
2023-05-25T16:40:10.366Z,5.75
2023-05-25T16:42:37.697Z,5.43
2023-05-25T16:45:05.280Z,4.72
2023-05-25T16:47:32.561Z,5.13
2023-05-25T16:50:00.681Z,5.75
2023-05-25T16:52:27.837Z,5.82
2023-05-25T16:54:56.295Z,5.70
2023-05-25T16:57:23.486Z,5.22
2023-05-25T16:59:52.304Z,6.03
2023-05-25T17:02:20.930Z,5.32
2023-05-25T17:04:48.112Z,5.13
2023-05-25T17:07:15.301Z,5.43
2023-05-25T17:09:42.461Z,6.43
2023-05-25T17:12:09.677Z,5.65
2023-05-25T17:14:37.120Z,6.60
2023-05-25T17:17:04.309Z,6.90
2023-05-25T17:19:31.577Z,6.00
2023-05-25T17:21:58.735Z,5.65
2023-05-25T17:24:25.884Z,5.95
2023-05-25T17:26:53.229Z,5.60
2023-05-25T17:29:20.429Z,5.68
2023-05-25T17:31:48.911Z,5.30
2023-05-25T17:34:16.751Z,5.65
2023-05-25T17:36:44.385Z,5.32
2023-05-25T17:39:11.543Z,4.95
2023-05-25T17:41:38.900Z,5.18
2023-05-25T17:44:06.102Z,5.45
2023-05-25T17:46:33.327Z,5.38
2023-05-25T17:49:00.561Z,5.82
2023-05-25T17:51:32.440Z,5.25
2023-05-25T17:53:59.654Z,5.82
2023-05-25T17:56:27.213Z,5.47
2023-05-25T17:58:54.408Z,6.15
2023-05-25T18:01:22.243Z,5.78
2023-05-25T18:03:53.870Z,5.00
2023-05-25T18:06:21.656Z,5.20
2023-05-25T18:08:49.209Z,4.90
2023-05-25T18:11:16.371Z,5.30
2023-05-25T18:13:43.523Z,4.40
2023-05-25T18:16:10.877Z,5.18
2023-05-25T18:18:38.116Z,4.95
2023-05-25T18:21:05.741Z,5.15
2023-05-25T18:23:32.884Z,5.32
2023-05-25T18:26:00.072Z,4.82
2023-05-25T18:28:28.635Z,5.35
2023-05-25T18:30:56.940Z,5.38
2023-05-25T18:33:24.138Z,4.82
2023-05-25T18:35:51.287Z,5.43
2023-05-25T18:38:18.456Z,5.80
2023-05-25T18:40:45.663Z,5.00
2023-05-25T18:43:12.844Z,5.68
2023-05-25T18:45:40.054Z,5.72
2023-05-25T18:48:07.517Z,5.50
2023-05-25T18:50:39.372Z,5.10
2023-05-25T18:53:09.791Z,5.82
2023-05-25T18:55:37.700Z,6.10
2023-05-25T18:58:05.262Z,5.82
2023-05-25T19:00:32.463Z,5.35
2023-05-25T19:02:59.734Z,4.80
2023-05-25T19:05:27.168Z,5.93
2023-05-25T19:07:59.099Z,6.03
2023-05-25T19:10:26.982Z,6.72
2023-05-25T19:12:54.190Z,6.43
2023-05-25T19:15:21.402Z,5.82
2023-05-25T19:17:49.775Z,5.95
2023-05-25T19:20:17.382Z,6.80
2023-05-25T19:22:44.713Z,6.10
2023-05-25T19:25:11.964Z,6.47
2023-05-25T19:27:39.130Z,6.53
2023-05-25T19:30:07.000Z,6.72
2023-05-25T19:32:34.233Z,6.40
2023-05-25T19:35:01.440Z,6.57
2023-05-25T19:37:28.623Z,6.70
2023-05-25T19:39:55.829Z,7.47
2023-05-25T19:42:22.970Z,7.20
2023-05-25T19:44:50.174Z,7.28
2023-05-25T19:47:17.322Z,8.10
2023-05-25T19:49:44.628Z,8.23
2023-05-25T19:52:11.758Z,8.27
2023-05-25T19:54:39.021Z,6.90
2023-05-25T19:57:06.814Z,6.63
2023-05-25T19:59:34.095Z,7.35
2023-05-25T20:02:01.263Z,7.85
2023-05-25T20:04:28.535Z,7.35
2023-05-25T20:06:55.869Z,8.00
2023-05-25T20:09:30.565Z,8.52
2023-05-25T20:12:02.448Z,7.97
2023-05-25T20:14:30.876Z,7.95
2023-05-25T20:16:58.045Z,7.93
2023-05-25T20:19:25.187Z,8.02
2023-05-25T20:21:52.777Z,8.15
2023-05-25T20:24:19.945Z,8.43
2023-05-25T20:26:47.097Z,7.28
2023-05-25T20:29:14.267Z,8.23
2023-05-25T20:31:41.474Z,8.45
2023-05-25T20:34:08.659Z,8.50
2023-05-25T20:36:35.830Z,8.90
2023-05-25T20:39:03.247Z,8.73
2023-05-25T20:41:30.629Z,9.40
2023-05-25T20:43:57.957Z,9.25
2023-05-25T20:46:25.998Z,9.50
2023-05-25T20:48:53.589Z,9.30
2023-05-25T20:51:21.821Z,8.98
2023-05-25T20:53:49.103Z,9.70
2023-05-25T20:56:16.371Z,9.48
2023-05-25T20:58:43.583Z,9.68
2023-05-25T21:01:11.084Z,10.40
2023-05-25T21:03:38.395Z,8.88
2023-05-25T21:06:06.263Z,9.80
2023-05-25T21:08:33.869Z,9.80
2023-05-25T21:11:01.107Z,8.60
2023-05-25T21:13:28.349Z,9.45
2023-05-25T21:15:56.089Z,9.52
2023-05-25T21:18:23.297Z,9.55
2023-05-25T21:20:50.641Z,9.50
2023-05-25T21:23:17.793Z,9.43
2023-05-25T21:25:45.366Z,9.73
2023-05-25T21:28:12.748Z,10.40
2023-05-25T21:30:39.924Z,9.60
2023-05-25T21:33:07.148Z,9.65
2023-05-25T21:35:34.362Z,10.18
2023-05-25T21:38:01.515Z,9.40
2023-05-25T21:40:28.690Z,9.98
2023-05-25T21:42:55.827Z,10.15
2023-05-25T21:45:23.044Z,10.82
2023-05-25T21:47:50.452Z,11.38
2023-05-25T21:50:17.761Z,11.20
2023-05-25T21:52:45.009Z,11.65
2023-05-25T21:55:12.172Z,11.18
2023-05-25T21:57:39.309Z,12.48
2023-05-25T22:00:06.791Z,12.70
2023-05-25T22:02:34.044Z,12.10
2023-05-25T22:05:01.408Z,12.18
2023-05-25T22:07:28.547Z,11.43
2023-05-25T22:09:56.104Z,11.45
2023-05-25T22:12:23.252Z,10.85
2023-05-25T22:14:50.441Z,10.48
2023-05-25T22:17:18.963Z,11.77
2023-05-25T22:19:55.285Z,11.32
2023-05-25T22:22:26.496Z,11.27
2023-05-25T22:24:53.671Z,11.75
2023-05-25T22:27:21.113Z,10.75
2023-05-25T22:29:48.280Z,12.60
2023-05-25T22:32:15.428Z,10.60
2023-05-25T22:34:42.617Z,11.70
2023-05-25T22:37:10.973Z,12.63
2023-05-25T22:39:38.220Z,12.35
2023-05-25T22:42:06.635Z,12.32
2023-05-25T22:44:35.800Z,13.45
2023-05-25T22:47:03.306Z,13.77
2023-05-25T22:49:30.505Z,13.15
2023-05-25T22:51:57.746Z,13.50
2023-05-25T22:54:24.903Z,12.00
2023-05-25T22:56:52.070Z,11.30
2023-05-25T22:59:19.284Z,12.00
2023-05-25T23:01:46.705Z,12.02
2023-05-25T23:04:14.228Z,12.55
2023-05-25T23:06:41.730Z,11.88
2023-05-25T23:09:08.899Z,12.50
2023-05-25T23:11:36.085Z,12.68
2023-05-25T23:14:03.220Z,11.77
2023-05-25T23:16:30.433Z,12.32
2023-05-25T23:18:57.865Z,12.02
2023-05-25T23:21:25.020Z,11.48
2023-05-25T23:23:52.200Z,11.95
2023-05-25T23:26:19.402Z,12.88
2023-05-25T23:28:46.620Z,11.98
2023-05-25T23:31:13.870Z,12.05
2023-05-25T23:33:41.123Z,11.60
2023-05-25T23:36:08.349Z,11.85
2023-05-25T23:38:35.633Z,11.52
2023-05-25T23:41:02.878Z,10.88
2023-05-25T23:43:30.068Z,11.63
2023-05-25T23:45:57.282Z,11.98
2023-05-25T23:48:24.498Z,11.70
2023-05-25T23:50:51.653Z,11.38
2023-05-25T23:53:18.819Z,11.25
2023-05-25T23:55:46.281Z,11.40
2023-05-25T23:58:13.647Z,12.45
